sensor_id;sensor_type;location;lat;lon;timestamp;P1;durP1;ratioP1;P2;durP2;ratioP2
64959;SDS011;51487;52.266;10.542;2023-04-03T00:01:15;5.30;;;2.30;;
64959;SDS011;51487;52.266;10.542;2023-04-03T00:03:41;6.95;;;3.30;;
64959;SDS011;51487;52.266;10.542;2023-04-03T00:06:07;4.22;;;2.10;;
64959;SDS011;51487;52.266;10.542;2023-04-03T00:08:33;3.95;;;2.33;;
64959;SDS011;51487;52.266;10.542;2023-04-03T00:11:00;4.10;;;1.83;;
64959;SDS011;51487;52.266;10.542;2023-04-03T00:13:25;3.58;;;2.40;;
64959;SDS011;51487;52.266;10.542;2023-04-03T00:15:51;3.10;;;2.22;;
64959;SDS011;51487;52.266;10.542;2023-04-03T00:18:17;4.43;;;2.28;;
64959;SDS011;51487;52.266;10.542;2023-04-03T00:20:42;7.47;;;2.20;;
64959;SDS011;51487;52.266;10.542;2023-04-03T00:23:08;3.47;;;2.25;;
64959;SDS011;51487;52.266;10.542;2023-04-03T00:25:34;5.50;;;2.33;;
64959;SDS011;51487;52.266;10.542;2023-04-03T00:27:59;5.53;;;2.08;;
64959;SDS011;51487;52.266;10.542;2023-04-03T00:30:25;3.90;;;2.47;;
64959;SDS011;51487;52.266;10.542;2023-04-03T00:32:51;3.97;;;2.15;;
64959;SDS011;51487;52.266;10.542;2023-04-03T00:35:18;6.22;;;2.05;;
64959;SDS011;51487;52.266;10.542;2023-04-03T00:37:44;2.72;;;2.00;;
64959;SDS011;51487;52.266;10.542;2023-04-03T00:40:10;5.57;;;2.20;;
64959;SDS011;51487;52.266;10.542;2023-04-03T00:42:39;3.92;;;2.30;;
64959;SDS011;51487;52.266;10.542;2023-04-03T00:47:30;6.43;;;2.97;;
64959;SDS011;51487;52.266;10.542;2023-04-03T00:49:56;3.08;;;2.05;;
64959;SDS011;51487;52.266;10.542;2023-04-03T00:52:25;7.57;;;2.63;;
64959;SDS011;51487;52.266;10.542;2023-04-03T00:54:55;6.18;;;2.20;;
64959;SDS011;51487;52.266;10.542;2023-04-03T00:57:26;5.03;;;2.20;;
64959;SDS011;51487;52.266;10.542;2023-04-03T00:59:54;4.68;;;2.45;;
64959;SDS011;51487;52.266;10.542;2023-04-03T01:02:22;6.78;;;2.28;;
64959;SDS011;51487;52.266;10.542;2023-04-03T01:04:48;4.78;;;2.20;;
64959;SDS011;51487;52.266;10.542;2023-04-03T01:07:18;4.90;;;2.47;;
64959;SDS011;51487;52.266;10.542;2023-04-03T01:09:46;4.40;;;2.30;;
64959;SDS011;51487;52.266;10.542;2023-04-03T01:14:41;5.60;;;2.40;;
64959;SDS011;51487;52.266;10.542;2023-04-03T01:20:11;5.10;;;2.75;;
64959;SDS011;51487;52.266;10.542;2023-04-03T01:23:01;6.10;;;2.25;;
64959;SDS011;51487;52.266;10.542;2023-04-03T01:25:39;5.75;;;2.28;;
64959;SDS011;51487;52.266;10.542;2023-04-03T01:28:11;3.22;;;2.00;;
64959;SDS011;51487;52.266;10.542;2023-04-03T01:33:35;7.70;;;2.33;;
64959;SDS011;51487;52.266;10.542;2023-04-03T01:36:02;8.65;;;2.40;;
64959;SDS011;51487;52.266;10.542;2023-04-03T01:38:28;6.10;;;2.58;;
64959;SDS011;51487;52.266;10.542;2023-04-03T01:40:54;6.53;;;2.33;;
64959;SDS011;51487;52.266;10.542;2023-04-03T01:43:19;4.65;;;2.13;;
64959;SDS011;51487;52.266;10.542;2023-04-03T01:45:45;4.07;;;2.10;;
64959;SDS011;51487;52.266;10.542;2023-04-03T01:48:11;4.25;;;2.40;;
64959;SDS011;51487;52.266;10.542;2023-04-03T01:50:38;8.63;;;2.22;;
64959;SDS011;51487;52.266;10.542;2023-04-03T01:53:03;4.55;;;2.13;;
64959;SDS011;51487;52.266;10.542;2023-04-03T01:55:28;4.32;;;2.50;;
64959;SDS011;51487;52.266;10.542;2023-04-03T01:57:54;8.30;;;3.10;;
64959;SDS011;51487;52.266;10.542;2023-04-03T02:00:19;4.75;;;2.58;;
64959;SDS011;51487;52.266;10.542;2023-04-03T02:02:45;5.28;;;2.78;;
64959;SDS011;51487;52.266;10.542;2023-04-03T02:05:10;6.10;;;2.63;;
64959;SDS011;51487;52.266;10.542;2023-04-03T02:07:35;3.85;;;2.10;;
64959;SDS011;51487;52.266;10.542;2023-04-03T02:10:01;3.92;;;2.42;;
64959;SDS011;51487;52.266;10.542;2023-04-03T02:12:27;2.88;;;2.30;;
64959;SDS011;51487;52.266;10.542;2023-04-03T02:14:52;5.35;;;2.47;;
64959;SDS011;51487;52.266;10.542;2023-04-03T02:17:18;6.97;;;2.70;;
64959;SDS011;51487;52.266;10.542;2023-04-03T02:19:43;8.07;;;2.97;;
64959;SDS011;51487;52.266;10.542;2023-04-03T02:22:09;4.55;;;2.47;;
64959;SDS011;51487;52.266;10.542;2023-04-03T02:24:34;5.03;;;2.63;;
64959;SDS011;51487;52.266;10.542;2023-04-03T02:27:00;5.07;;;2.75;;
64959;SDS011;51487;52.266;10.542;2023-04-03T02:29:25;3.88;;;2.50;;
64959;SDS011;51487;52.266;10.542;2023-04-03T02:31:50;5.97;;;2.60;;
64959;SDS011;51487;52.266;10.542;2023-04-03T02:34:16;6.25;;;2.70;;
64959;SDS011;51487;52.266;10.542;2023-04-03T02:36:42;9.00;;;2.75;;
64959;SDS011;51487;52.266;10.542;2023-04-03T02:39:07;9.18;;;2.60;;
64959;SDS011;51487;52.266;10.542;2023-04-03T02:41:33;3.67;;;2.53;;
64959;SDS011;51487;52.266;10.542;2023-04-03T02:44:03;4.95;;;2.30;;
64959;SDS011;51487;52.266;10.542;2023-04-03T02:46:30;7.13;;;2.40;;
64959;SDS011;51487;52.266;10.542;2023-04-03T02:48:57;7.32;;;2.70;;
64959;SDS011;51487;52.266;10.542;2023-04-03T02:51:22;4.03;;;2.40;;
64959;SDS011;51487;52.266;10.542;2023-04-03T02:53:48;6.57;;;2.30;;
64959;SDS011;51487;52.266;10.542;2023-04-03T02:56:14;4.05;;;2.10;;
64959;SDS011;51487;52.266;10.542;2023-04-03T02:58:40;7.57;;;2.67;;
64959;SDS011;51487;52.266;10.542;2023-04-03T03:01:05;6.78;;;2.92;;
64959;SDS011;51487;52.266;10.542;2023-04-03T03:03:30;6.00;;;2.42;;
64959;SDS011;51487;52.266;10.542;2023-04-03T03:06:03;7.65;;;2.80;;
64959;SDS011;51487;52.266;10.542;2023-04-03T03:08:33;4.47;;;2.30;;
64959;SDS011;51487;52.266;10.542;2023-04-03T03:10:59;5.47;;;2.58;;
64959;SDS011;51487;52.266;10.542;2023-04-03T03:13:25;4.38;;;2.58;;
64959;SDS011;51487;52.266;10.542;2023-04-03T03:15:50;5.85;;;2.92;;
64959;SDS011;51487;52.266;10.542;2023-04-03T03:18:16;4.00;;;2.33;;
64959;SDS011;51487;52.266;10.542;2023-04-03T03:20:41;6.38;;;2.65;;
64959;SDS011;51487;52.266;10.542;2023-04-03T03:23:07;3.80;;;2.35;;
64959;SDS011;51487;52.266;10.542;2023-04-03T03:25:32;3.53;;;2.20;;
64959;SDS011;51487;52.266;10.542;2023-04-03T03:27:58;8.50;;;3.35;;
64959;SDS011;51487;52.266;10.542;2023-04-03T03:30:23;6.50;;;2.90;;
64959;SDS011;51487;52.266;10.542;2023-04-03T03:32:48;6.28;;;2.47;;
64959;SDS011;51487;52.266;10.542;2023-04-03T03:35:14;4.88;;;2.60;;
64959;SDS011;51487;52.266;10.542;2023-04-03T03:37:39;5.75;;;2.78;;
64959;SDS011;51487;52.266;10.542;2023-04-03T03:40:05;5.50;;;3.08;;
64959;SDS011;51487;52.266;10.542;2023-04-03T03:42:31;7.22;;;3.22;;
64959;SDS011;51487;52.266;10.542;2023-04-03T03:44:56;5.80;;;2.33;;
64959;SDS011;51487;52.266;10.542;2023-04-03T03:47:21;7.43;;;2.90;;
64959;SDS011;51487;52.266;10.542;2023-04-03T03:49:47;4.30;;;2.33;;
64959;SDS011;51487;52.266;10.542;2023-04-03T03:52:12;4.80;;;2.20;;
64959;SDS011;51487;52.266;10.542;2023-04-03T03:54:38;7.53;;;2.78;;
64959;SDS011;51487;52.266;10.542;2023-04-03T03:57:03;6.47;;;2.92;;
64959;SDS011;51487;52.266;10.542;2023-04-03T03:59:29;4.10;;;2.40;;
64959;SDS011;51487;52.266;10.542;2023-04-03T04:01:55;5.82;;;2.67;;
64959;SDS011;51487;52.266;10.542;2023-04-03T04:04:21;6.93;;;2.80;;
64959;SDS011;51487;52.266;10.542;2023-04-03T04:06:46;3.08;;;2.38;;
64959;SDS011;51487;52.266;10.542;2023-04-03T04:09:12;5.57;;;2.47;;
64959;SDS011;51487;52.266;10.542;2023-04-03T04:11:37;5.82;;;2.40;;
64959;SDS011;51487;52.266;10.542;2023-04-03T04:14:04;4.32;;;2.15;;
64959;SDS011;51487;52.266;10.542;2023-04-03T04:16:30;5.18;;;2.90;;
64959;SDS011;51487;52.266;10.542;2023-04-03T04:18:55;3.97;;;2.50;;
64959;SDS011;51487;52.266;10.542;2023-04-03T04:21:21;6.63;;;2.60;;
64959;SDS011;51487;52.266;10.542;2023-04-03T04:23:46;2.40;;;2.20;;
64959;SDS011;51487;52.266;10.542;2023-04-03T04:26:11;3.40;;;2.30;;
64959;SDS011;51487;52.266;10.542;2023-04-03T04:28:37;3.75;;;2.22;;
64959;SDS011;51487;52.266;10.542;2023-04-03T04:31:02;2.45;;;1.85;;
64959;SDS011;51487;52.266;10.542;2023-04-03T04:33:28;6.70;;;2.50;;
64959;SDS011;51487;52.266;10.542;2023-04-03T04:35:53;8.10;;;2.90;;
64959;SDS011;51487;52.266;10.542;2023-04-03T04:38:18;3.05;;;2.13;;
64959;SDS011;51487;52.266;10.542;2023-04-03T04:40:44;5.07;;;2.45;;
64959;SDS011;51487;52.266;10.542;2023-04-03T04:43:09;2.30;;;2.10;;
64959;SDS011;51487;52.266;10.542;2023-04-03T04:45:39;5.25;;;2.35;;
64959;SDS011;51487;52.266;10.542;2023-04-03T04:48:04;4.95;;;2.72;;
64959;SDS011;51487;52.266;10.542;2023-04-03T04:50:30;4.72;;;2.30;;
64959;SDS011;51487;52.266;10.542;2023-04-03T04:52:55;5.97;;;2.53;;
64959;SDS011;51487;52.266;10.542;2023-04-03T04:55:21;5.85;;;2.50;;
64959;SDS011;51487;52.266;10.542;2023-04-03T04:57:46;4.70;;;2.75;;
64959;SDS011;51487;52.266;10.542;2023-04-03T05:00:11;4.97;;;2.35;;
64959;SDS011;51487;52.266;10.542;2023-04-03T05:02:38;3.85;;;2.28;;
64959;SDS011;51487;52.266;10.542;2023-04-03T05:05:03;3.97;;;2.83;;
64959;SDS011;51487;52.266;10.542;2023-04-03T05:07:29;5.72;;;2.53;;
64959;SDS011;51487;52.266;10.542;2023-04-03T05:09:54;3.78;;;2.45;;
64959;SDS011;51487;52.266;10.542;2023-04-03T05:12:20;4.40;;;2.40;;
64959;SDS011;51487;52.266;10.542;2023-04-03T05:14:45;8.07;;;2.55;;
64959;SDS011;51487;52.266;10.542;2023-04-03T05:17:10;5.18;;;2.33;;
64959;SDS011;51487;52.266;10.542;2023-04-03T05:19:36;5.55;;;2.28;;
64959;SDS011;51487;52.266;10.542;2023-04-03T05:22:01;7.63;;;2.58;;
64959;SDS011;51487;52.266;10.542;2023-04-03T05:24:27;6.30;;;2.55;;
64959;SDS011;51487;52.266;10.542;2023-04-03T05:26:53;6.18;;;2.35;;
64959;SDS011;51487;52.266;10.542;2023-04-03T05:29:18;4.38;;;2.33;;
64959;SDS011;51487;52.266;10.542;2023-04-03T05:31:43;4.00;;;2.33;;
64959;SDS011;51487;52.266;10.542;2023-04-03T05:34:09;4.03;;;2.30;;
64959;SDS011;51487;52.266;10.542;2023-04-03T05:36:34;4.18;;;2.30;;
64959;SDS011;51487;52.266;10.542;2023-04-03T05:39:00;4.93;;;2.60;;
64959;SDS011;51487;52.266;10.542;2023-04-03T05:41:25;9.13;;;2.85;;
64959;SDS011;51487;52.266;10.542;2023-04-03T05:43:51;6.80;;;2.60;;
64959;SDS011;51487;52.266;10.542;2023-04-03T05:46:17;7.07;;;2.65;;
64959;SDS011;51487;52.266;10.542;2023-04-03T05:48:44;6.10;;;2.40;;
64959;SDS011;51487;52.266;10.542;2023-04-03T05:51:14;8.27;;;2.88;;
64959;SDS011;51487;52.266;10.542;2023-04-03T05:53:41;3.97;;;2.20;;
64959;SDS011;51487;52.266;10.542;2023-04-03T05:56:08;2.53;;;2.22;;
64959;SDS011;51487;52.266;10.542;2023-04-03T05:58:33;5.93;;;2.53;;
64959;SDS011;51487;52.266;10.542;2023-04-03T06:00:59;7.47;;;2.38;;
64959;SDS011;51487;52.266;10.542;2023-04-03T06:03:24;6.15;;;2.50;;
64959;SDS011;51487;52.266;10.542;2023-04-03T06:05:50;5.82;;;2.97;;
64959;SDS011;51487;52.266;10.542;2023-04-03T06:08:16;5.40;;;2.55;;
64959;SDS011;51487;52.266;10.542;2023-04-03T06:10:41;3.22;;;2.30;;
64959;SDS011;51487;52.266;10.542;2023-04-03T06:13:06;4.07;;;2.40;;
64959;SDS011;51487;52.266;10.542;2023-04-03T06:15:32;5.10;;;2.05;;
64959;SDS011;51487;52.266;10.542;2023-04-03T06:17:58;3.80;;;2.70;;
64959;SDS011;51487;52.266;10.542;2023-04-03T06:20:24;4.03;;;2.30;;
64959;SDS011;51487;52.266;10.542;2023-04-03T06:22:49;7.15;;;2.45;;
64959;SDS011;51487;52.266;10.542;2023-04-03T06:25:15;6.45;;;2.53;;
64959;SDS011;51487;52.266;10.542;2023-04-03T06:27:42;5.07;;;2.20;;
64959;SDS011;51487;52.266;10.542;2023-04-03T06:30:07;8.80;;;2.40;;
64959;SDS011;51487;52.266;10.542;2023-04-03T06:32:33;7.45;;;2.47;;
64959;SDS011;51487;52.266;10.542;2023-04-03T06:34:59;6.50;;;2.58;;
64959;SDS011;51487;52.266;10.542;2023-04-03T06:37:25;4.95;;;2.20;;
64959;SDS011;51487;52.266;10.542;2023-04-03T06:39:51;6.20;;;2.72;;
64959;SDS011;51487;52.266;10.542;2023-04-03T06:42:16;5.82;;;2.10;;
64959;SDS011;51487;52.266;10.542;2023-04-03T06:44:42;4.53;;;2.22;;
64959;SDS011;51487;52.266;10.542;2023-04-03T06:47:09;2.92;;;2.10;;
64959;SDS011;51487;52.266;10.542;2023-04-03T06:49:36;6.95;;;2.50;;
64959;SDS011;51487;52.266;10.542;2023-04-03T06:52:02;5.65;;;2.08;;
64959;SDS011;51487;52.266;10.542;2023-04-03T06:54:27;5.72;;;2.33;;
64959;SDS011;51487;52.266;10.542;2023-04-03T06:56:53;3.75;;;2.47;;
64959;SDS011;51487;52.266;10.542;2023-04-03T06:59:18;4.43;;;2.60;;
64959;SDS011;51487;52.266;10.542;2023-04-03T07:01:44;6.00;;;2.35;;
64959;SDS011;51487;52.266;10.542;2023-04-03T07:04:10;5.53;;;2.42;;
64959;SDS011;51487;52.266;10.542;2023-04-03T07:06:35;3.03;;;2.22;;
64959;SDS011;51487;52.266;10.542;2023-04-03T07:09:01;8.77;;;2.60;;
64959;SDS011;51487;52.266;10.542;2023-04-03T07:11:26;7.40;;;2.15;;
64959;SDS011;51487;52.266;10.542;2023-04-03T07:13:52;5.00;;;2.22;;
64959;SDS011;51487;52.266;10.542;2023-04-03T07:16:18;6.45;;;2.33;;
64959;SDS011;51487;52.266;10.542;2023-04-03T07:18:45;4.50;;;2.20;;
64959;SDS011;51487;52.266;10.542;2023-04-03T07:21:10;6.53;;;2.10;;
64959;SDS011;51487;52.266;10.542;2023-04-03T07:23:36;6.90;;;2.55;;
64959;SDS011;51487;52.266;10.542;2023-04-03T07:26:02;6.13;;;2.45;;
64959;SDS011;51487;52.266;10.542;2023-04-03T07:28:27;4.35;;;2.05;;
64959;SDS011;51487;52.266;10.542;2023-04-03T07:30:59;4.00;;;1.98;;
64959;SDS011;51487;52.266;10.542;2023-04-03T07:33:26;3.03;;;1.87;;
64959;SDS011;51487;52.266;10.542;2023-04-03T07:35:52;3.72;;;1.70;;
64959;SDS011;51487;52.266;10.542;2023-04-03T07:38:18;7.88;;;1.90;;
64959;SDS011;51487;52.266;10.542;2023-04-03T07:40:47;2.65;;;1.98;;
64959;SDS011;51487;52.266;10.542;2023-04-03T07:43:14;5.05;;;1.85;;
64959;SDS011;51487;52.266;10.542;2023-04-03T07:45:41;6.20;;;1.98;;
64959;SDS011;51487;52.266;10.542;2023-04-03T07:48:08;4.45;;;2.30;;
64959;SDS011;51487;52.266;10.542;2023-04-03T07:50:34;6.53;;;2.20;;
64959;SDS011;51487;52.266;10.542;2023-04-03T07:53:01;3.63;;;2.05;;
64959;SDS011;51487;52.266;10.542;2023-04-03T07:55:28;5.53;;;1.98;;
64959;SDS011;51487;52.266;10.542;2023-04-03T07:57:54;3.58;;;1.60;;
64959;SDS011;51487;52.266;10.542;2023-04-03T08:00:20;7.53;;;1.83;;
64959;SDS011;51487;52.266;10.542;2023-04-03T08:02:46;5.35;;;1.88;;
64959;SDS011;51487;52.266;10.542;2023-04-03T08:05:18;2.95;;;1.60;;
64959;SDS011;51487;52.266;10.542;2023-04-03T08:07:44;2.55;;;1.70;;
64959;SDS011;51487;52.266;10.542;2023-04-03T08:10:09;4.10;;;1.75;;
64959;SDS011;51487;52.266;10.542;2023-04-03T08:12:34;4.65;;;2.38;;
64959;SDS011;51487;52.266;10.542;2023-04-03T08:15:02;4.80;;;1.70;;
64959;SDS011;51487;52.266;10.542;2023-04-03T08:17:28;4.50;;;1.80;;
64959;SDS011;51487;52.266;10.542;2023-04-03T08:19:53;5.65;;;2.20;;
64959;SDS011;51487;52.266;10.542;2023-04-03T08:22:19;2.63;;;1.52;;
64959;SDS011;51487;52.266;10.542;2023-04-03T08:24:44;3.50;;;1.77;;
64959;SDS011;51487;52.266;10.542;2023-04-03T08:27:10;4.35;;;1.60;;
64959;SDS011;51487;52.266;10.542;2023-04-03T08:29:35;3.30;;;1.60;;
64959;SDS011;51487;52.266;10.542;2023-04-03T08:32:02;3.95;;;2.00;;
64959;SDS011;51487;52.266;10.542;2023-04-03T08:34:28;4.15;;;1.85;;
64959;SDS011;51487;52.266;10.542;2023-04-03T08:36:54;2.30;;;1.60;;
64959;SDS011;51487;52.266;10.542;2023-04-03T08:39:20;2.75;;;1.77;;
64959;SDS011;51487;52.266;10.542;2023-04-03T08:41:45;2.00;;;1.50;;
64959;SDS011;51487;52.266;10.542;2023-04-03T08:49:40;3.08;;;1.35;;
64959;SDS011;51487;52.266;10.542;2023-04-03T08:52:58;3.10;;;1.83;;
64959;SDS011;51487;52.266;10.542;2023-04-03T08:57:44;2.33;;;1.30;;
64959;SDS011;51487;52.266;10.542;2023-04-03T09:03:00;3.75;;;1.83;;
64959;SDS011;51487;52.266;10.542;2023-04-03T09:08:27;1.67;;;1.58;;
64959;SDS011;51487;52.266;10.542;2023-04-03T09:11:06;3.03;;;1.73;;
64959;SDS011;51487;52.266;10.542;2023-04-03T09:13:40;2.10;;;1.52;;
64959;SDS011;51487;52.266;10.542;2023-04-03T09:16:16;2.83;;;1.70;;
64959;SDS011;51487;52.266;10.542;2023-04-03T09:18:53;3.28;;;1.70;;
64959;SDS011;51487;52.266;10.542;2023-04-03T09:21:25;4.38;;;1.77;;
64959;SDS011;51487;52.266;10.542;2023-04-03T09:24:03;2.65;;;1.50;;
64959;SDS011;51487;52.266;10.542;2023-04-03T09:26:36;4.68;;;1.80;;
64959;SDS011;51487;52.266;10.542;2023-04-03T09:29:07;2.15;;;1.60;;
64959;SDS011;51487;52.266;10.542;2023-04-03T09:31:38;2.90;;;1.55;;
64959;SDS011;51487;52.266;10.542;2023-04-03T09:36:47;3.22;;;1.80;;
64959;SDS011;51487;52.266;10.542;2023-04-03T09:39:18;4.15;;;1.60;;
64959;SDS011;51487;52.266;10.542;2023-04-03T09:44:26;8.68;;;1.60;;
64959;SDS011;51487;52.266;10.542;2023-04-03T09:46:56;2.42;;;1.73;;
64959;SDS011;51487;52.266;10.542;2023-04-03T09:49:22;3.97;;;1.92;;
64959;SDS011;51487;52.266;10.542;2023-04-03T09:51:47;3.35;;;1.58;;
64959;SDS011;51487;52.266;10.542;2023-04-03T09:54:24;1.85;;;1.60;;
64959;SDS011;51487;52.266;10.542;2023-04-03T09:56:51;1.83;;;1.30;;
64959;SDS011;51487;52.266;10.542;2023-04-03T09:59:18;5.13;;;1.70;;
64959;SDS011;51487;52.266;10.542;2023-04-03T10:01:56;2.08;;;1.73;;
64959;SDS011;51487;52.266;10.542;2023-04-03T10:04:24;3.78;;;1.50;;
64959;SDS011;51487;52.266;10.542;2023-04-03T10:06:51;3.47;;;1.60;;
64959;SDS011;51487;52.266;10.542;2023-04-03T10:09:22;3.33;;;1.80;;
64959;SDS011;51487;52.266;10.542;2023-04-03T10:14:41;4.97;;;1.77;;
64959;SDS011;51487;52.266;10.542;2023-04-03T10:28:48;2.65;;;1.40;;
64959;SDS011;51487;52.266;10.542;2023-04-03T10:31:23;2.10;;;1.33;;
64959;SDS011;51487;52.266;10.542;2023-04-03T10:34:09;4.90;;;1.50;;
64959;SDS011;51487;52.266;10.542;2023-04-03T10:39:59;3.08;;;1.95;;
64959;SDS011;51487;52.266;10.542;2023-04-03T10:42:38;2.35;;;1.45;;
64959;SDS011;51487;52.266;10.542;2023-04-03T10:50:27;1.88;;;1.60;;
64959;SDS011;51487;52.266;10.542;2023-04-03T10:58:40;2.67;;;1.45;;
64959;SDS011;51487;52.266;10.542;2023-04-03T11:01:13;2.88;;;1.80;;
64959;SDS011;51487;52.266;10.542;2023-04-03T11:03:44;2.13;;;1.50;;
64959;SDS011;51487;52.266;10.542;2023-04-03T11:06:12;5.32;;;1.60;;
64959;SDS011;51487;52.266;10.542;2023-04-03T11:09:02;3.83;;;1.50;;
64959;SDS011;51487;52.266;10.542;2023-04-03T11:11:32;2.85;;;1.55;;
64959;SDS011;51487;52.266;10.542;2023-04-03T11:14:05;2.60;;;1.83;;
64959;SDS011;51487;52.266;10.542;2023-04-03T11:16:40;3.67;;;1.48;;
64959;SDS011;51487;52.266;10.542;2023-04-03T11:19:11;3.73;;;1.67;;
64959;SDS011;51487;52.266;10.542;2023-04-03T11:21:48;3.92;;;1.40;;
64959;SDS011;51487;52.266;10.542;2023-04-03T11:24:34;3.25;;;2.05;;
64959;SDS011;51487;52.266;10.542;2023-04-03T11:27:03;2.83;;;1.73;;
64959;SDS011;51487;52.266;10.542;2023-04-03T11:29:34;1.50;;;1.35;;
64959;SDS011;51487;52.266;10.542;2023-04-03T11:34:36;2.95;;;1.55;;
64959;SDS011;51487;52.266;10.542;2023-04-03T11:37:12;1.85;;;1.48;;
64959;SDS011;51487;52.266;10.542;2023-04-03T11:39:47;3.75;;;1.70;;
64959;SDS011;51487;52.266;10.542;2023-04-03T11:44:46;1.95;;;1.63;;
64959;SDS011;51487;52.266;10.542;2023-04-03T11:47:12;4.75;;;1.70;;
64959;SDS011;51487;52.266;10.542;2023-04-03T12:05:48;2.17;;;1.35;;
64959;SDS011;51487;52.266;10.542;2023-04-03T12:11:13;2.92;;;1.50;;
64959;SDS011;51487;52.266;10.542;2023-04-03T12:13:42;3.53;;;1.50;;
64959;SDS011;51487;52.266;10.542;2023-04-03T12:16:29;3.65;;;1.67;;
64959;SDS011;51487;52.266;10.542;2023-04-03T12:18:59;3.50;;;1.50;;
64959;SDS011;51487;52.266;10.542;2023-04-03T12:24:05;2.55;;;1.30;;
64959;SDS011;51487;52.266;10.542;2023-04-03T12:26:51;5.10;;;1.80;;
64959;SDS011;51487;52.266;10.542;2023-04-03T12:29:36;2.08;;;1.40;;
64959;SDS011;51487;52.266;10.542;2023-04-03T12:32:31;2.50;;;1.50;;
64959;SDS011;51487;52.266;10.542;2023-04-03T12:35:27;3.25;;;1.60;;
64959;SDS011;51487;52.266;10.542;2023-04-03T12:43:15;3.58;;;1.52;;
64959;SDS011;51487;52.266;10.542;2023-04-03T12:48:22;2.28;;;1.50;;
64959;SDS011;51487;52.266;10.542;2023-04-03T12:50:51;2.80;;;1.63;;
64959;SDS011;51487;52.266;10.542;2023-04-03T12:53:32;3.22;;;1.30;;
64959;SDS011;51487;52.266;10.542;2023-04-03T12:59:13;5.82;;;1.50;;
64959;SDS011;51487;52.266;10.542;2023-04-03T13:01:40;1.98;;;1.50;;
64959;SDS011;51487;52.266;10.542;2023-04-03T13:04:05;3.05;;;1.30;;
64959;SDS011;51487;52.266;10.542;2023-04-03T13:06:32;2.78;;;1.58;;
64959;SDS011;51487;52.266;10.542;2023-04-03T13:09:05;2.25;;;1.40;;
64959;SDS011;51487;52.266;10.542;2023-04-03T13:11:42;2.45;;;1.55;;
64959;SDS011;51487;52.266;10.542;2023-04-03T13:14:19;2.70;;;1.40;;
64959;SDS011;51487;52.266;10.542;2023-04-03T13:16:59;1.50;;;1.40;;
64959;SDS011;51487;52.266;10.542;2023-04-03T13:19:28;2.55;;;1.52;;
64959;SDS011;51487;52.266;10.542;2023-04-03T13:21:57;4.30;;;1.70;;
64959;SDS011;51487;52.266;10.542;2023-04-03T13:24:26;2.90;;;1.50;;
64959;SDS011;51487;52.266;10.542;2023-04-03T13:26:54;3.08;;;1.77;;
64959;SDS011;51487;52.266;10.542;2023-04-03T13:29:38;3.20;;;1.67;;
64959;SDS011;51487;52.266;10.542;2023-04-03T13:32:05;2.92;;;1.60;;
64959;SDS011;51487;52.266;10.542;2023-04-03T13:34:36;2.75;;;1.55;;
64959;SDS011;51487;52.266;10.542;2023-04-03T13:37:05;2.50;;;1.42;;
64959;SDS011;51487;52.266;10.542;2023-04-03T13:39:34;4.95;;;1.58;;
64959;SDS011;51487;52.266;10.542;2023-04-03T13:42:14;2.88;;;1.80;;
64959;SDS011;51487;52.266;10.542;2023-04-03T13:44:42;2.83;;;1.50;;
64959;SDS011;51487;52.266;10.542;2023-04-03T13:47:21;3.83;;;1.60;;
64959;SDS011;51487;52.266;10.542;2023-04-03T13:50:01;2.58;;;1.50;;
64959;SDS011;51487;52.266;10.542;2023-04-03T13:52:43;2.08;;;1.60;;
64959;SDS011;51487;52.266;10.542;2023-04-03T13:55:23;2.22;;;1.42;;
64959;SDS011;51487;52.266;10.542;2023-04-03T14:03:23;2.30;;;1.40;;
64959;SDS011;51487;52.266;10.542;2023-04-03T14:05:55;3.45;;;1.60;;
64959;SDS011;51487;52.266;10.542;2023-04-03T14:08:21;1.95;;;1.42;;
64959;SDS011;51487;52.266;10.542;2023-04-03T14:10:46;2.00;;;1.40;;
64959;SDS011;51487;52.266;10.542;2023-04-03T14:13:14;6.95;;;1.67;;
64959;SDS011;51487;52.266;10.542;2023-04-03T14:15:41;2.63;;;1.60;;
64959;SDS011;51487;52.266;10.542;2023-04-03T14:18:10;4.25;;;1.60;;
64959;SDS011;51487;52.266;10.542;2023-04-03T14:20:37;1.70;;;1.35;;
64959;SDS011;51487;52.266;10.542;2023-04-03T14:23:02;3.28;;;1.55;;
64959;SDS011;51487;52.266;10.542;2023-04-03T14:25:27;1.60;;;1.25;;
64959;SDS011;51487;52.266;10.542;2023-04-03T14:27:53;1.50;;;1.40;;
64959;SDS011;51487;52.266;10.542;2023-04-03T14:30:24;2.20;;;1.50;;
64959;SDS011;51487;52.266;10.542;2023-04-03T14:32:54;2.67;;;1.40;;
64959;SDS011;51487;52.266;10.542;2023-04-03T14:35:21;3.00;;;1.60;;
64959;SDS011;51487;52.266;10.542;2023-04-03T14:37:47;2.53;;;1.55;;
64959;SDS011;51487;52.266;10.542;2023-04-03T14:40:15;1.85;;;1.50;;
64959;SDS011;51487;52.266;10.542;2023-04-03T14:42:43;2.97;;;1.65;;
64959;SDS011;51487;52.266;10.542;2023-04-03T14:45:10;1.65;;;1.40;;
64959;SDS011;51487;52.266;10.542;2023-04-03T14:47:50;5.00;;;1.60;;
64959;SDS011;51487;52.266;10.542;2023-04-03T14:50:19;3.47;;;1.75;;
64959;SDS011;51487;52.266;10.542;2023-04-03T14:52:50;4.63;;;1.75;;
64959;SDS011;51487;52.266;10.542;2023-04-03T14:55:18;3.22;;;1.60;;
64959;SDS011;51487;52.266;10.542;2023-04-03T14:57:45;2.30;;;1.85;;
64959;SDS011;51487;52.266;10.542;2023-04-03T15:00:20;3.17;;;1.40;;
64959;SDS011;51487;52.266;10.542;2023-04-03T15:02:46;2.22;;;1.50;;
64959;SDS011;51487;52.266;10.542;2023-04-03T15:05:13;2.22;;;1.45;;
64959;SDS011;51487;52.266;10.542;2023-04-03T15:07:40;2.08;;;1.40;;
64959;SDS011;51487;52.266;10.542;2023-04-03T15:12:39;3.50;;;1.50;;
64959;SDS011;51487;52.266;10.542;2023-04-03T15:15:05;5.55;;;1.50;;
64959;SDS011;51487;52.266;10.542;2023-04-03T15:17:31;2.55;;;1.92;;
64959;SDS011;51487;52.266;10.542;2023-04-03T15:19:57;3.80;;;1.55;;
64959;SDS011;51487;52.266;10.542;2023-04-03T15:22:23;4.78;;;1.80;;
64959;SDS011;51487;52.266;10.542;2023-04-03T15:24:48;3.30;;;1.77;;
64959;SDS011;51487;52.266;10.542;2023-04-03T15:27:14;2.38;;;1.60;;
64959;SDS011;51487;52.266;10.542;2023-04-03T15:29:41;1.52;;;1.42;;
64959;SDS011;51487;52.266;10.542;2023-04-03T15:32:07;2.78;;;1.50;;
64959;SDS011;51487;52.266;10.542;2023-04-03T15:34:33;3.53;;;1.70;;
64959;SDS011;51487;52.266;10.542;2023-04-03T15:36:59;2.35;;;1.60;;
64959;SDS011;51487;52.266;10.542;2023-04-03T15:39:25;3.50;;;1.60;;
64959;SDS011;51487;52.266;10.542;2023-04-03T15:41:51;2.70;;;1.70;;
64959;SDS011;51487;52.266;10.542;2023-04-03T15:44:17;1.88;;;1.40;;
64959;SDS011;51487;52.266;10.542;2023-04-03T15:46:43;3.45;;;1.75;;
64959;SDS011;51487;52.266;10.542;2023-04-03T15:49:09;3.80;;;1.60;;
64959;SDS011;51487;52.266;10.542;2023-04-03T15:51:36;2.55;;;1.58;;
64959;SDS011;51487;52.266;10.542;2023-04-03T15:54:01;2.78;;;1.70;;
64959;SDS011;51487;52.266;10.542;2023-04-03T15:56:26;4.55;;;1.70;;
64959;SDS011;51487;52.266;10.542;2023-04-03T15:58:52;5.05;;;1.52;;
64959;SDS011;51487;52.266;10.542;2023-04-03T16:01:17;2.95;;;1.40;;
64959;SDS011;51487;52.266;10.542;2023-04-03T16:03:43;2.88;;;1.50;;
64959;SDS011;51487;52.266;10.542;2023-04-03T16:06:13;2.85;;;1.60;;
64959;SDS011;51487;52.266;10.542;2023-04-03T16:08:40;3.38;;;1.20;;
64959;SDS011;51487;52.266;10.542;2023-04-03T16:11:06;4.35;;;1.83;;
64959;SDS011;51487;52.266;10.542;2023-04-03T16:13:32;2.53;;;1.35;;
64959;SDS011;51487;52.266;10.542;2023-04-03T16:15:58;2.20;;;1.35;;
64959;SDS011;51487;52.266;10.542;2023-04-03T16:18:25;2.20;;;1.50;;
64959;SDS011;51487;52.266;10.542;2023-04-03T16:20:51;1.85;;;1.70;;
64959;SDS011;51487;52.266;10.542;2023-04-03T16:23:16;2.50;;;1.50;;